PATK/TKA METAR and TAF weather

Enter ICAO airport designator
Station Type Date Time Source
PATK METAR 2023/06/03 01:07 UTC NOAA

PATK 030107Z AUTO 19007KT 10SM -RA OVC032 08/04 A2995 RMK AO2 RAB0059 P0000 T00830044 TSNO


Station Type Date Time Source
PATK Decoded METAR 2023/06/03 01:07 UTC NOAA

TALKEETNA AIRPORT, AK, United States (PATK) 62-19N 150-06W 109M
Jun 02, 2023 - 09:07 PM EDT / 2023.06.03 0107 UTC
Wind: from the S (190 degrees) at 8 MPH (7 KT):0
Visibility: 10 mile(s):0
Sky conditions: overcast
Weather: light rain
Precipitation last hour: A trace
Temperature: 46.9 F (8.3 C)
Dew Point: 39.9 F (4.4 C)
Relative Humidity: 76%
Pressure (altimeter): 29.95 in. Hg (1014 hPa)
ob: PATK 030107Z AUTO 19007KT 10SM -RA OVC032 08/04 A2995 RMK AO2 RAB0059 P0000 T00830044 TSNO
cycle: 1

Station Type Date Time Source
PATK TAF 2023/06/02 20:09 UTC NOAA

TAF
AMD PATK 022007Z 0220/0318 17010KT P6SM -RA SCT015 OVC025
TEMPO 0220/0222 BKN015
FM030000 18008G16KT P6SM VCSH SCT025 BKN040
FM030400 17006KT P6SM VCSH SCT030 BKN050
FM031200 VRB03KT P6SM BKN025

Example: see airport list